sensor_id;sensor_type;location;lat;lon;timestamp;temperature;humidity
1025;DHT22;501;48.214;11.350;2023-12-20T07:10:14;4.80;74.60
1025;DHT22;501;48.214;11.350;2023-12-20T07:28:15;4.80;74.20
1025;DHT22;501;48.214;11.350;2023-12-20T07:30:41;4.80;73.70
1025;DHT22;501;48.214;11.350;2023-12-20T07:33:06;4.80;72.30
1025;DHT22;501;48.214;11.350;2023-12-20T07:35:37;4.80;70.80
1025;DHT22;501;48.214;11.350;2023-12-20T07:38:02;4.80;71.30
1025;DHT22;501;48.214;11.350;2023-12-20T07:40:29;4.80;71.20
1025;DHT22;501;48.214;11.350;2023-12-20T07:42:54;4.80;70.80
1025;DHT22;501;48.214;11.350;2023-12-20T07:45:20;4.80;70.80
1025;DHT22;501;48.214;11.350;2023-12-20T07:47:47;4.90;70.80
1025;DHT22;501;48.214;11.350;2023-12-20T07:50:13;4.90;70.30
1025;DHT22;501;48.214;11.350;2023-12-20T07:52:39;4.90;69.60
1025;DHT22;501;48.214;11.350;2023-12-20T07:55:05;4.90;70.10
1025;DHT22;501;48.214;11.350;2023-12-20T07:57:31;4.90;70.80
1025;DHT22;501;48.214;11.350;2023-12-20T07:59:57;4.90;70.80
1025;DHT22;501;48.214;11.350;2023-12-20T08:02:22;4.80;70.80
1025;DHT22;501;48.214;11.350;2023-12-20T08:04:48;4.90;71.70
1025;DHT22;501;48.214;11.350;2023-12-20T08:07:14;4.90;72.30
1025;DHT22;501;48.214;11.350;2023-12-20T08:09:40;4.90;72.20
1025;DHT22;501;48.214;11.350;2023-12-20T08:12:05;4.80;72.00
1025;DHT22;501;48.214;11.350;2023-12-20T08:14:31;4.90;72.50
1025;DHT22;501;48.214;11.350;2023-12-20T08:16:57;4.80;72.10
1025;DHT22;501;48.214;11.350;2023-12-20T08:19:23;4.80;72.10
1025;DHT22;501;48.214;11.350;2023-12-20T08:21:50;4.80;71.30
1025;DHT22;501;48.214;11.350;2023-12-20T08:24:16;4.80;72.10
1025;DHT22;501;48.214;11.350;2023-12-20T08:26:41;4.80;72.60
1025;DHT22;501;48.214;11.350;2023-12-20T08:29:07;4.80;72.00
1025;DHT22;501;48.214;11.350;2023-12-20T08:31:33;4.80;72.10
1025;DHT22;501;48.214;11.350;2023-12-20T08:34:01;4.90;72.30
1025;DHT22;501;48.214;11.350;2023-12-20T08:36:27;4.80;71.40
1025;DHT22;501;48.214;11.350;2023-12-20T08:38:53;4.80;72.30
1025;DHT22;501;48.214;11.350;2023-12-20T08:41:20;4.90;73.50
1025;DHT22;501;48.214;11.350;2023-12-20T08:43:46;4.90;73.20
1025;DHT22;501;48.214;11.350;2023-12-20T08:46:14;4.90;72.70
1025;DHT22;501;48.214;11.350;2023-12-20T08:48:40;4.90;73.50
1025;DHT22;501;48.214;11.350;2023-12-20T08:51:06;5.00;73.30
1025;DHT22;501;48.214;11.350;2023-12-20T08:53:34;5.00;72.80
1025;DHT22;501;48.214;11.350;2023-12-20T08:56:00;5.00;74.10
1025;DHT22;501;48.214;11.350;2023-12-20T08:58:28;5.10;73.30
1025;DHT22;501;48.214;11.350;2023-12-20T09:00:53;5.10;72.20
1025;DHT22;501;48.214;11.350;2023-12-20T09:03:19;5.10;71.70
1025;DHT22;501;48.214;11.350;2023-12-20T09:05:48;5.10;73.00
1025;DHT22;501;48.214;11.350;2023-12-20T09:08:14;5.10;73.00
1025;DHT22;501;48.214;11.350;2023-12-20T09:10:40;5.10;73.50
1025;DHT22;501;48.214;11.350;2023-12-20T09:13:06;5.10;74.50
1025;DHT22;501;48.214;11.350;2023-12-20T09:15:31;5.10;74.50
1025;DHT22;501;48.214;11.350;2023-12-20T09:17:59;5.10;74.20
1025;DHT22;501;48.214;11.350;2023-12-20T09:20:25;5.20;73.40
1025;DHT22;501;48.214;11.350;2023-12-20T09:22:51;5.10;72.90
1025;DHT22;501;48.214;11.350;2023-12-20T09:25:17;5.20;72.70
1025;DHT22;501;48.214;11.350;2023-12-20T09:27:43;5.20;73.40
1025;DHT22;501;48.214;11.350;2023-12-20T09:30:09;5.20;72.90
1025;DHT22;501;48.214;11.350;2023-12-20T09:32:38;5.20;74.00
1025;DHT22;501;48.214;11.350;2023-12-20T09:35:04;5.20;73.90
1025;DHT22;501;48.214;11.350;2023-12-20T09:37:31;5.20;74.10
1025;DHT22;501;48.214;11.350;2023-12-20T09:39:57;5.30;72.30
1025;DHT22;501;48.214;11.350;2023-12-20T09:42:41;5.30;71.80
1025;DHT22;501;48.214;11.350;2023-12-20T09:45:09;5.30;73.20
1025;DHT22;501;48.214;11.350;2023-12-20T09:47:36;5.30;73.60
1025;DHT22;501;48.214;11.350;2023-12-20T09:50:05;5.30;74.20
1025;DHT22;501;48.214;11.350;2023-12-20T09:52:34;5.30;71.80
1025;DHT22;501;48.214;11.350;2023-12-20T09:55:03;5.40;72.50
1025;DHT22;501;48.214;11.350;2023-12-20T09:57:31;5.50;72.70
1025;DHT22;501;48.214;11.350;2023-12-20T09:59:57;5.50;72.30
1025;DHT22;501;48.214;11.350;2023-12-20T10:02:25;5.60;72.50
1025;DHT22;501;48.214;11.350;2023-12-20T10:04:54;5.60;71.80
1025;DHT22;501;48.214;11.350;2023-12-20T10:07:20;5.60;71.40
1025;DHT22;501;48.214;11.350;2023-12-20T10:09:47;5.70;70.60
1025;DHT22;501;48.214;11.350;2023-12-20T10:12:14;5.70;71.50
1025;DHT22;501;48.214;11.350;2023-12-20T10:14:39;5.70;71.10
1025;DHT22;501;48.214;11.350;2023-12-20T10:17:06;5.80;70.10
1025;DHT22;501;48.214;11.350;2023-12-20T10:19:32;5.70;70.40
1025;DHT22;501;48.214;11.350;2023-12-20T10:22:04;5.80;71.60
1025;DHT22;501;48.214;11.350;2023-12-20T10:24:30;5.80;71.70
1025;DHT22;501;48.214;11.350;2023-12-20T10:27:07;5.80;71.60
1025;DHT22;501;48.214;11.350;2023-12-20T10:29:37;5.80;71.60
1025;DHT22;501;48.214;11.350;2023-12-20T10:34:45;5.90;72.70
1025;DHT22;501;48.214;11.350;2023-12-20T10:37:11;5.90;70.90
1025;DHT22;501;48.214;11.350;2023-12-20T10:39:37;5.90;70.70
1025;DHT22;501;48.214;11.350;2023-12-20T10:42:04;5.90;70.40
1025;DHT22;501;48.214;11.350;2023-12-20T10:44:31;5.90;70.90
1025;DHT22;501;48.214;11.350;2023-12-20T10:46:57;5.90;70.30
1025;DHT22;501;48.214;11.350;2023-12-20T10:49:25;5.90;70.10
1025;DHT22;501;48.214;11.350;2023-12-20T10:51:53;5.90;70.00
1025;DHT22;501;48.214;11.350;2023-12-20T10:54:19;5.90;68.90
1025;DHT22;501;48.214;11.350;2023-12-20T10:56:45;6.00;69.10
1025;DHT22;501;48.214;11.350;2023-12-20T10:59:14;6.00;67.90
1025;DHT22;501;48.214;11.350;2023-12-20T11:04:23;6.00;68.20
1025;DHT22;501;48.214;11.350;2023-12-20T11:07:13;6.00;66.30
1025;DHT22;501;48.214;11.350;2023-12-20T11:09:45;6.10;66.30
1025;DHT22;501;48.214;11.350;2023-12-20T11:17:28;6.10;64.30
1025;DHT22;501;48.214;11.350;2023-12-20T11:22:26;6.10;65.20
1025;DHT22;501;48.214;11.350;2023-12-20T11:24:53;6.10;63.70
1025;DHT22;501;48.214;11.350;2023-12-20T11:27:21;6.20;63.70
1025;DHT22;501;48.214;11.350;2023-12-20T11:29:58;6.20;63.50
1025;DHT22;501;48.214;11.350;2023-12-20T11:34:57;6.30;63.10
1025;DHT22;501;48.214;11.350;2023-12-20T11:37:30;6.30;62.20
1025;DHT22;501;48.214;11.350;2023-12-20T11:40:07;6.30;62.40
1025;DHT22;501;48.214;11.350;2023-12-20T11:42:41;6.40;62.70
1025;DHT22;501;48.214;11.350;2023-12-20T11:45:13;6.40;60.30
1025;DHT22;501;48.214;11.350;2023-12-20T11:47:43;6.50;59.60
1025;DHT22;501;48.214;11.350;2023-12-20T11:50:11;6.50;58.20
1025;DHT22;501;48.214;11.350;2023-12-20T11:52:37;6.50;58.00
1025;DHT22;501;48.214;11.350;2023-12-20T11:55:03;6.50;58.40
1025;DHT22;501;48.214;11.350;2023-12-20T11:57:30;6.60;58.90
1025;DHT22;501;48.214;11.350;2023-12-20T11:59:56;6.60;57.70
1025;DHT22;501;48.214;11.350;2023-12-20T12:02:22;6.70;58.40
1025;DHT22;501;48.214;11.350;2023-12-20T12:04:49;6.70;58.00
1025;DHT22;501;48.214;11.350;2023-12-20T12:07:16;6.70;57.30
1025;DHT22;501;48.214;11.350;2023-12-20T12:09:43;6.80;56.70
1025;DHT22;501;48.214;11.350;2023-12-20T12:12:10;6.80;55.80
1025;DHT22;501;48.214;11.350;2023-12-20T12:14:37;6.80;55.00
1025;DHT22;501;48.214;11.350;2023-12-20T12:17:03;6.90;53.90
1025;DHT22;501;48.214;11.350;2023-12-20T12:19:29;6.80;52.60
1025;DHT22;501;48.214;11.350;2023-12-20T12:24:36;6.80;52.50
1025;DHT22;501;48.214;11.350;2023-12-20T12:27:02;6.80;52.20
1025;DHT22;501;48.214;11.350;2023-12-20T12:29:31;6.70;53.00
1025;DHT22;501;48.214;11.350;2023-12-20T12:31:57;6.60;52.50
1025;DHT22;501;48.214;11.350;2023-12-20T12:34:23;6.50;52.90
1025;DHT22;501;48.214;11.350;2023-12-20T12:36:49;6.40;53.20
1025;DHT22;501;48.214;11.350;2023-12-20T12:39:18;6.40;53.10
1025;DHT22;501;48.214;11.350;2023-12-20T12:41:44;6.30;53.20
1025;DHT22;501;48.214;11.350;2023-12-20T12:44:09;6.20;53.90
1025;DHT22;501;48.214;11.350;2023-12-20T12:46:35;6.10;53.70
1025;DHT22;501;48.214;11.350;2023-12-20T12:49:01;6.10;54.80
1025;DHT22;501;48.214;11.350;2023-12-20T12:51:27;5.90;53.20
1025;DHT22;501;48.214;11.350;2023-12-20T12:53:53;5.90;53.90
1025;DHT22;501;48.214;11.350;2023-12-20T12:56:19;5.80;55.50
1025;DHT22;501;48.214;11.350;2023-12-20T12:58:45;5.80;54.90
1025;DHT22;501;48.214;11.350;2023-12-20T13:06:34;5.80;54.20
1025;DHT22;501;48.214;11.350;2023-12-20T13:09:00;5.80;55.00
1025;DHT22;501;48.214;11.350;2023-12-20T13:14:01;5.70;53.30
1025;DHT22;501;48.214;11.350;2023-12-20T13:16:27;5.70;52.30
1025;DHT22;501;48.214;11.350;2023-12-20T13:18:53;5.70;52.30
1025;DHT22;501;48.214;11.350;2023-12-20T13:21:19;5.70;53.00
1025;DHT22;501;48.214;11.350;2023-12-20T13:23:47;5.60;53.10
1025;DHT22;501;48.214;11.350;2023-12-20T13:26:12;5.60;52.20
1025;DHT22;501;48.214;11.350;2023-12-20T13:28:38;5.60;52.70
1025;DHT22;501;48.214;11.350;2023-12-20T13:36:28;5.70;51.50
1025;DHT22;501;48.214;11.350;2023-12-20T13:38:54;5.70;51.80
1025;DHT22;501;48.214;11.350;2023-12-20T13:43:58;5.70;50.90
1025;DHT22;501;48.214;11.350;2023-12-20T13:46:25;5.70;50.60
1025;DHT22;501;48.214;11.350;2023-12-20T13:48:54;5.80;50.80
1025;DHT22;501;48.214;11.350;2023-12-20T13:56:29;5.80;50.30
1025;DHT22;501;48.214;11.350;2023-12-20T13:58:55;5.70;50.20
1025;DHT22;501;48.214;11.350;2023-12-20T14:14:26;5.70;48.40
1025;DHT22;501;48.214;11.350;2023-12-20T14:16:52;5.60;48.50
1025;DHT22;501;48.214;11.350;2023-12-20T14:19:17;5.60;48.30
1025;DHT22;501;48.214;11.350;2023-12-20T14:34:43;5.50;47.50
1025;DHT22;501;48.214;11.350;2023-12-20T14:37:09;5.50;47.80
1025;DHT22;501;48.214;11.350;2023-12-20T14:39:34;5.50;47.20
1025;DHT22;501;48.214;11.350;2023-12-20T14:42:04;5.50;46.90
1025;DHT22;501;48.214;11.350;2023-12-20T14:44:30;5.50;46.70
1025;DHT22;501;48.214;11.350;2023-12-20T14:46:56;5.50;46.20
1025;DHT22;501;48.214;11.350;2023-12-20T14:49:22;5.40;45.40
1025;DHT22;501;48.214;11.350;2023-12-20T14:56:59;5.30;43.90
1025;DHT22;501;48.214;11.350;2023-12-20T14:59:25;5.30;43.50
1025;DHT22;501;48.214;11.350;2023-12-20T15:01:51;5.30;43.90
1025;DHT22;501;48.214;11.350;2023-12-20T15:04:17;5.20;43.80
1025;DHT22;501;48.214;11.350;2023-12-20T15:06:43;5.30;44.70
1025;DHT22;501;48.214;11.350;2023-12-20T15:09:11;5.30;44.90
1025;DHT22;501;48.214;11.350;2023-12-20T15:11:37;5.20;44.90
1025;DHT22;501;48.214;11.350;2023-12-20T15:14:03;5.20;43.90
1025;DHT22;501;48.214;11.350;2023-12-20T15:16:29;5.20;44.40
1025;DHT22;501;48.214;11.350;2023-12-20T15:18:56;5.20;43.80
1025;DHT22;501;48.214;11.350;2023-12-20T15:21:22;5.20;44.00
1025;DHT22;501;48.214;11.350;2023-12-20T15:23:57;5.20;44.30
1025;DHT22;501;48.214;11.350;2023-12-20T15:26:32;5.20;44.40
1025;DHT22;501;48.214;11.350;2023-12-20T15:28:58;5.20;44.70
1025;DHT22;501;48.214;11.350;2023-12-20T15:31:26;5.10;44.70
1025;DHT22;501;48.214;11.350;2023-12-20T15:33:55;5.10;44.30
1025;DHT22;501;48.214;11.350;2023-12-20T15:36:21;5.10;44.20
1025;DHT22;501;48.214;11.350;2023-12-20T15:38:46;5.20;44.20
